createdAt,value
2022-08-23T00:03:26.271Z,1.90
2022-08-23T00:08:29.381Z,1.98
2022-08-23T00:13:47.752Z,1.83
2022-08-23T00:18:51.152Z,1.85
2022-08-23T00:23:53.953Z,1.92
2022-08-23T00:28:58.121Z,1.90
2022-08-23T00:34:01.073Z,2.00
2022-08-23T00:39:04.490Z,2.20
2022-08-23T00:44:29.026Z,2.17
2022-08-23T00:49:33.295Z,1.98
2022-08-23T00:54:37.924Z,1.95
2022-08-23T00:59:42.442Z,1.95
2022-08-23T01:04:49.859Z,2.05
2022-08-23T01:09:55.148Z,1.90
2022-08-23T01:15:02.245Z,2.10
2022-08-23T01:20:08.807Z,1.50
2022-08-23T01:25:17.882Z,2.17
2022-08-23T01:30:23.867Z,2.25
2022-08-23T01:35:33.478Z,1.95
2022-08-23T01:40:38.515Z,1.92
2022-08-23T01:45:43.899Z,2.10
2022-08-23T01:50:48.687Z,2.00
2022-08-23T01:55:52.850Z,2.15
2022-08-23T02:00:57.833Z,1.77
2022-08-23T02:06:00.845Z,1.98
2022-08-23T02:11:10.555Z,2.30
2022-08-23T02:16:23.697Z,1.92
2022-08-23T02:21:27.651Z,1.90
2022-08-23T02:26:32.230Z,2.05
2022-08-23T02:31:39.685Z,2.33
2022-08-23T02:36:43.299Z,2.00
2022-08-23T02:41:48.296Z,2.17
2022-08-23T02:46:51.418Z,2.22
2022-08-23T02:51:54.270Z,3.83
2022-08-23T02:56:58.690Z,2.22
2022-08-23T03:02:01.949Z,2.13
2022-08-23T03:07:09.845Z,2.28
2022-08-23T03:12:15.218Z,2.33
2022-08-23T03:17:34.292Z,2.05
2022-08-23T03:22:40.166Z,1.92
2022-08-23T03:27:53.480Z,2.20
2022-08-23T03:32:57.260Z,2.08
2022-08-23T03:38:00.440Z,2.25
2022-08-23T03:43:05.018Z,2.30
2022-08-23T03:48:07.868Z,2.35
2022-08-23T03:53:12.060Z,2.28
2022-08-23T03:58:18.429Z,2.30
2022-08-23T04:03:21.358Z,2.33
2022-08-23T04:08:36.427Z,2.67
2022-08-23T04:13:43.006Z,2.60
2022-08-23T04:18:47.732Z,3.03
2022-08-23T04:23:52.874Z,2.95
2022-08-23T04:28:57.980Z,2.78
2022-08-23T04:34:01.466Z,2.88
2022-08-23T04:39:04.463Z,2.67
2022-08-23T04:44:09.541Z,2.80
2022-08-23T04:49:12.670Z,3.25
2022-08-23T04:54:19.011Z,2.67
2022-08-23T04:59:46.995Z,2.90
2022-08-23T05:04:51.561Z,3.00
2022-08-23T05:09:54.393Z,2.67
2022-08-23T05:14:58.628Z,2.58
2022-08-23T05:20:02.424Z,3.03
2022-08-23T05:25:06.781Z,2.60
2022-08-23T05:30:15.287Z,2.55
2022-08-23T05:35:21.133Z,3.15
2022-08-23T05:40:24.097Z,2.95
2022-08-23T05:45:41.111Z,3.28
2022-08-23T05:50:47.911Z,3.05
2022-08-23T05:55:51.392Z,3.53
2022-08-23T06:00:57.429Z,3.33
2022-08-23T06:06:00.658Z,3.10
2022-08-23T06:11:04.683Z,3.10
2022-08-23T06:16:15.961Z,2.65
2022-08-23T06:21:20.144Z,3.30
2022-08-23T06:26:26.976Z,3.40
2022-08-23T06:31:47.262Z,3.10
2022-08-23T06:36:55.124Z,2.80
2022-08-23T06:42:38.009Z,2.70
2022-08-23T06:47:42.332Z,3.08
2022-08-23T06:52:48.183Z,3.33
2022-08-23T06:58:08.414Z,2.83
2022-08-23T07:03:37.342Z,3.25
2022-08-23T07:08:59.947Z,2.92
2022-08-23T07:14:06.307Z,3.20
2022-08-23T07:19:12.216Z,2.83
2022-08-23T07:24:15.557Z,2.83
2022-08-23T07:29:19.787Z,2.83
2022-08-23T07:34:24.859Z,2.88
2022-08-23T07:39:27.964Z,3.45
2022-08-23T07:44:31.172Z,2.75
2022-08-23T07:49:36.737Z,2.85
2022-08-23T07:54:40.367Z,2.70
2022-08-23T08:00:01.375Z,1.85
2022-08-23T08:05:06.483Z,1.73
2022-08-23T08:10:09.830Z,1.58
2022-08-23T08:15:13.030Z,1.67
2022-08-23T08:20:18.531Z,1.20
2022-08-23T08:25:50.755Z,1.35
2022-08-23T08:30:55.817Z,1.45
2022-08-23T08:36:01.283Z,1.65
2022-08-23T08:41:25.524Z,1.40
2022-08-23T08:46:38.775Z,1.60
2022-08-23T08:51:48.607Z,1.50
2022-08-23T08:56:54.078Z,1.50
2022-08-23T09:02:01.816Z,1.48
2022-08-23T09:07:15.967Z,1.30
2022-08-23T09:12:24.914Z,1.17
2022-08-23T09:17:34.463Z,1.55
2022-08-23T09:22:44.474Z,1.33
2022-08-23T09:27:57.228Z,1.60
2022-08-23T09:33:16.257Z,1.65
2022-08-23T09:38:21.538Z,1.40
2022-08-23T09:43:31.598Z,1.83
2022-08-23T09:48:39.042Z,1.40
2022-08-23T09:53:49.605Z,1.60
2022-08-23T09:58:54.485Z,1.42
2022-08-23T10:04:16.101Z,1.83
2022-08-23T10:09:30.437Z,1.52
2022-08-23T10:14:34.092Z,1.40
2022-08-23T10:19:42.655Z,1.30
2022-08-23T10:24:49.432Z,1.50
2022-08-23T10:29:59.386Z,1.50
2022-08-23T10:35:15.050Z,1.85
2022-08-23T10:40:28.392Z,1.70
2022-08-23T10:45:34.098Z,1.67
2022-08-23T10:50:55.559Z,1.50
2022-08-23T10:56:04.158Z,1.95
2022-08-23T11:01:16.296Z,1.65
2022-08-23T11:06:44.465Z,1.80
2022-08-23T11:11:51.586Z,1.70
2022-08-23T11:16:59.483Z,1.48
2022-08-23T11:22:15.111Z,1.42
2022-08-23T11:27:37.271Z,1.60
2022-08-23T11:32:44.127Z,1.50
2022-08-23T11:38:01.636Z,1.50
2022-08-23T11:43:27.346Z,1.30
2022-08-23T11:48:43.692Z,1.65
2022-08-23T11:54:18.112Z,1.05
2022-08-23T11:59:43.024Z,1.00
2022-08-23T12:04:50.642Z,1.08
2022-08-23T12:09:56.280Z,0.75
2022-08-23T12:15:01.844Z,1.20
2022-08-23T12:20:16.882Z,0.70
2022-08-23T12:25:21.314Z,0.90
2022-08-23T12:30:28.719Z,0.85
2022-08-23T12:35:36.194Z,0.90
2022-08-23T12:40:42.630Z,0.80
2022-08-23T12:45:49.782Z,0.73
2022-08-23T12:50:57.530Z,0.70
2022-08-23T12:56:02.407Z,0.70
2022-08-23T13:01:09.227Z,0.80
2022-08-23T13:06:15.936Z,0.80
2022-08-23T13:11:22.250Z,0.80
2022-08-23T13:16:29.512Z,0.70
2022-08-23T13:21:39.545Z,0.80
2022-08-23T13:26:44.557Z,0.90
2022-08-23T13:31:57.177Z,0.80
2022-08-23T13:37:03.927Z,0.75
2022-08-23T13:42:06.918Z,0.80
2022-08-23T13:47:22.812Z,0.95
2022-08-23T13:57:48.640Z,0.80
2022-08-23T14:02:52.800Z,0.73
2022-08-23T14:07:56.399Z,0.80
2022-08-23T14:13:00.668Z,1.05
2022-08-23T14:18:05.291Z,0.80
2022-08-23T14:23:12.015Z,0.88
2022-08-23T14:28:15.239Z,1.30
2022-08-23T14:33:20.413Z,1.30
2022-08-23T14:38:23.434Z,1.20
2022-08-23T14:43:27.056Z,1.23
2022-08-23T14:48:31.333Z,1.20
2022-08-23T14:53:41.190Z,1.05
2022-08-23T14:58:44.648Z,1.20
2022-08-23T15:03:49.289Z,1.30
2022-08-23T15:08:52.166Z,1.30
2022-08-23T15:13:56.360Z,1.23
2022-08-23T15:19:01.312Z,0.98
2022-08-23T15:24:05.359Z,1.00
2022-08-23T15:29:08.421Z,1.05
2022-08-23T15:34:13.331Z,1.05
2022-08-23T15:39:16.117Z,1.13
2022-08-23T15:44:18.984Z,1.20
2022-08-23T15:49:24.081Z,1.00
2022-08-23T15:54:26.897Z,1.17
2022-08-23T15:59:30.323Z,1.20
2022-08-23T16:04:35.863Z,1.30
2022-08-23T16:09:38.817Z,2.20
2022-08-23T16:14:41.693Z,0.93
2022-08-23T16:19:45.782Z,1.17
2022-08-23T16:24:48.622Z,1.23
2022-08-23T16:29:51.357Z,1.20
2022-08-23T16:34:55.826Z,1.10
2022-08-23T16:39:58.641Z,1.10
2022-08-23T16:45:01.812Z,1.30
2022-08-23T16:50:06.811Z,1.08
2022-08-23T16:55:12.570Z,1.30
2022-08-23T17:00:15.962Z,1.35
2022-08-23T17:05:20.291Z,1.20
2022-08-23T17:10:23.872Z,1.20
2022-08-23T17:15:33.918Z,1.10
2022-08-23T17:20:40.034Z,1.42
2022-08-23T17:25:47.566Z,1.00
2022-08-23T17:30:50.390Z,1.00
2022-08-23T17:35:54.551Z,1.00
2022-08-23T17:40:57.520Z,1.20
2022-08-23T17:46:00.288Z,0.93
2022-08-23T17:51:04.467Z,0.93
2022-08-23T17:56:11.711Z,0.98
2022-08-23T18:01:15.427Z,1.20
2022-08-23T18:06:19.909Z,1.13
2022-08-23T18:11:22.957Z,1.33
2022-08-23T18:16:30.751Z,1.13
2022-08-23T18:21:39.461Z,1.90
2022-08-23T18:27:00.395Z,1.20
2022-08-23T18:32:05.528Z,1.30
2022-08-23T18:37:09.662Z,1.33
2022-08-23T18:42:12.709Z,1.48
2022-08-23T18:47:15.628Z,1.40
2022-08-23T18:52:19.796Z,1.30
2022-08-23T18:57:22.646Z,1.48
2022-08-23T19:02:25.514Z,1.40
2022-08-23T19:07:29.987Z,1.40
2022-08-23T19:12:33.170Z,1.73
2022-08-23T19:17:35.995Z,1.27
2022-08-23T19:22:40.195Z,1.73
2022-08-23T19:27:43.046Z,2.10
2022-08-23T19:32:46.231Z,1.67
2022-08-23T19:37:50.576Z,1.73
2022-08-23T19:42:53.463Z,1.80
2022-08-23T19:47:59.624Z,2.20
2022-08-23T19:53:04.178Z,1.70
2022-08-23T19:58:07.808Z,1.77
2022-08-23T20:03:11.733Z,1.88
2022-08-23T20:08:15.913Z,1.88
2022-08-23T20:13:20.038Z,2.10
2022-08-23T20:18:22.873Z,2.00
2022-08-23T20:23:44.407Z,1.67
2022-08-23T20:28:59.157Z,1.65
2022-08-23T20:34:03.606Z,1.73
2022-08-23T20:39:07.883Z,1.55
2022-08-23T20:44:10.629Z,1.60
2022-08-23T20:49:13.821Z,1.85
2022-08-23T20:54:18.514Z,2.03
2022-08-23T20:59:21.743Z,1.83
2022-08-23T21:04:29.997Z,2.10
2022-08-23T21:09:34.657Z,2.08
2022-08-23T21:14:37.477Z,2.00
2022-08-23T21:19:40.245Z,1.60
2022-08-23T21:24:44.515Z,1.90
2022-08-23T21:29:47.242Z,2.08
2022-08-23T21:34:50.020Z,2.20
2022-08-23T21:39:54.312Z,2.08
2022-08-23T21:44:57.368Z,2.15
2022-08-23T21:50:00.549Z,2.28
2022-08-23T21:55:06.364Z,2.08
2022-08-23T22:00:13.721Z,2.10
2022-08-23T22:05:16.819Z,1.77
2022-08-23T22:10:21.435Z,2.10
2022-08-23T22:15:25.611Z,1.88
2022-08-23T22:20:28.407Z,2.10
2022-08-23T22:25:33.115Z,2.13
2022-08-23T22:30:36.004Z,2.03
2022-08-23T22:35:39.143Z,2.25
2022-08-23T22:40:48.590Z,2.08
2022-08-23T22:45:52.409Z,1.88
2022-08-23T22:51:06.174Z,2.05
2022-08-23T22:56:12.231Z,1.70
2022-08-23T23:01:19.805Z,1.90
2022-08-23T23:06:24.152Z,1.90
2022-08-23T23:11:29.339Z,1.90
2022-08-23T23:16:32.775Z,1.83
2022-08-23T23:21:36.135Z,1.88
2022-08-23T23:26:40.597Z,1.98
2022-08-23T23:31:43.548Z,2.17
2022-08-23T23:36:46.286Z,1.73
2022-08-23T23:41:50.636Z,1.90
2022-08-23T23:46:53.417Z,1.75
2022-08-23T23:51:56.131Z,1.98
2022-08-23T23:57:00.345Z,1.98
